createdAt,value
2019-04-04T00:01:40.347Z,6.59
2019-04-04T00:04:08.998Z,6.68
2019-04-04T00:06:37.720Z,6.57
2019-04-04T00:09:09.813Z,6.59
2019-04-04T00:11:38.615Z,6.50
2019-04-04T00:14:07.442Z,6.52
2019-04-04T00:16:36.183Z,6.62
2019-04-04T00:19:04.990Z,6.77
2019-04-04T00:21:34.537Z,6.64
2019-04-04T00:24:03.465Z,6.67
2019-04-04T00:26:32.197Z,6.52
2019-04-04T00:29:01.487Z,6.50
2019-04-04T00:31:30.429Z,6.47
2019-04-04T00:33:59.171Z,6.44
2019-04-04T00:36:27.893Z,6.46
2019-04-04T00:38:56.590Z,6.48
2019-04-04T00:41:25.326Z,6.53
2019-04-04T00:43:54.015Z,6.58
2019-04-04T00:46:22.775Z,6.48
2019-04-04T00:48:51.476Z,6.38
2019-04-04T00:51:20.186Z,6.48
2019-04-04T00:53:48.978Z,6.65
2019-04-04T00:56:18.656Z,6.72
2019-04-04T00:58:47.474Z,6.66
2019-04-04T01:01:16.704Z,6.62
2019-04-04T01:03:45.496Z,6.57
2019-04-04T01:06:14.299Z,6.52
2019-04-04T01:08:43.033Z,6.48
2019-04-04T01:11:12.033Z,6.47
2019-04-04T01:13:40.775Z,6.42
2019-04-04T01:16:09.579Z,6.40
2019-04-04T01:18:38.289Z,6.41
2019-04-04T01:21:07.062Z,6.38
2019-04-04T01:23:35.792Z,6.36
2019-04-04T01:26:04.669Z,6.52
2019-04-04T01:28:33.419Z,6.51
2019-04-04T01:31:02.145Z,6.45
2019-04-04T01:33:30.889Z,6.35
2019-04-04T01:35:59.591Z,6.42
2019-04-04T01:38:29.068Z,6.62
2019-04-04T01:40:58.702Z,6.66
2019-04-04T01:43:27.494Z,6.60
2019-04-04T01:45:56.208Z,6.58
2019-04-04T01:48:25.145Z,6.68
2019-04-04T01:50:54.289Z,6.55
2019-04-04T01:53:23.113Z,6.68
2019-04-04T01:55:51.940Z,6.68
2019-04-04T01:58:20.726Z,6.43
2019-04-04T02:00:49.459Z,6.52
2019-04-04T02:03:18.262Z,6.59
2019-04-04T02:05:46.974Z,6.63
2019-04-04T02:08:15.703Z,6.72
2019-04-04T02:10:44.439Z,6.71
2019-04-04T02:13:13.213Z,6.61
2019-04-04T02:15:42.808Z,6.58
2019-04-04T02:18:12.409Z,6.59
2019-04-04T02:20:41.141Z,6.47
2019-04-04T02:23:09.842Z,6.53
2019-04-04T02:25:38.673Z,6.55
2019-04-04T02:28:08.872Z,6.68
2019-04-04T02:30:37.939Z,6.73
2019-04-04T02:33:06.725Z,6.74
2019-04-04T02:35:35.539Z,6.49
2019-04-04T02:38:04.324Z,6.44
2019-04-04T02:40:33.117Z,6.42
2019-04-04T02:43:01.982Z,6.33
2019-04-04T02:45:30.708Z,6.36
2019-04-04T02:47:59.438Z,6.52
2019-04-04T02:50:28.182Z,6.65
2019-04-04T02:52:56.915Z,6.67
2019-04-04T02:55:29.852Z,6.59
2019-04-04T02:57:56.244Z,6.48
2019-04-04T03:00:26.915Z,6.35
2019-04-04T03:02:55.737Z,6.31
2019-04-04T03:05:24.525Z,6.28
2019-04-04T03:07:53.322Z,6.39
2019-04-04T03:10:22.129Z,6.53
2019-04-04T03:12:50.921Z,6.57
2019-04-04T03:15:19.746Z,6.48
2019-04-04T03:17:48.542Z,6.40
2019-04-04T03:20:17.676Z,6.37
2019-04-04T03:22:46.489Z,6.42
2019-04-04T03:25:15.731Z,6.27
2019-04-04T03:27:44.630Z,6.25
2019-04-04T03:30:16.624Z,6.23
2019-04-04T03:32:51.781Z,6.30
2019-04-04T03:35:14.419Z,6.31
2019-04-04T03:37:46.048Z,6.32
2019-04-04T03:40:13.688Z,6.37
2019-04-04T03:42:44.354Z,6.47
2019-04-04T03:45:12.980Z,6.46
2019-04-04T03:47:44.462Z,6.56
2019-04-04T03:50:12.255Z,6.46
2019-04-04T03:52:44.262Z,6.54
2019-04-04T03:55:11.437Z,6.46
2019-04-04T03:57:40.183Z,6.60
2019-04-04T04:00:09.360Z,6.80
2019-04-04T04:02:38.156Z,6.88
2019-04-04T04:05:22.375Z,6.80
2019-04-04T04:07:51.102Z,6.93
2019-04-04T04:10:19.826Z,7.12
2019-04-04T04:12:48.772Z,7.23
2019-04-04T04:15:17.502Z,6.83
2019-04-04T04:17:46.533Z,6.62
2019-04-04T04:20:15.547Z,6.53
2019-04-04T04:22:44.277Z,6.46
2019-04-04T04:25:13.069Z,6.42
2019-04-04T04:27:41.806Z,6.57
2019-04-04T04:30:12.556Z,6.72
2019-04-04T04:32:41.283Z,6.77
2019-04-04T04:35:10.067Z,6.89
2019-04-04T04:37:38.853Z,7.15
2019-04-04T04:40:07.704Z,7.21
2019-04-04T04:42:36.446Z,7.27
2019-04-04T04:45:05.700Z,7.16
2019-04-04T04:47:34.416Z,6.84
2019-04-04T04:50:03.137Z,6.89
2019-04-04T04:52:31.861Z,6.75
2019-04-04T04:55:00.721Z,6.72
2019-04-04T04:57:30.355Z,6.77
2019-04-04T04:59:59.432Z,6.58
2019-04-04T05:02:28.186Z,6.44
2019-04-04T05:04:59.028Z,6.30
2019-04-04T05:07:27.336Z,6.39
2019-04-04T05:09:55.961Z,6.40
2019-04-04T05:12:24.672Z,6.38
2019-04-04T05:14:53.330Z,6.32
2019-04-04T05:17:22.061Z,6.43
2019-04-04T05:19:50.816Z,6.53
2019-04-04T05:22:19.758Z,6.46
2019-04-04T05:25:06.988Z,6.47
2019-04-04T05:27:18.908Z,6.47
2019-04-04T05:32:58.842Z,6.50
2019-04-04T05:35:27.478Z,6.47
2019-04-04T05:37:56.182Z,6.56
2019-04-04T05:40:24.922Z,6.50
2019-04-04T05:42:53.783Z,6.50
2019-04-04T05:45:22.524Z,6.43
2019-04-04T05:47:51.158Z,6.41
2019-04-04T05:50:21.382Z,6.41
2019-04-04T05:52:50.000Z,6.36
2019-04-04T05:55:20.733Z,6.38
2019-04-04T05:57:50.980Z,6.49
2019-04-04T06:00:20.065Z,6.49
2019-04-04T06:02:49.082Z,6.51
2019-04-04T06:05:17.787Z,6.58
2019-04-04T06:07:46.411Z,6.53
2019-04-04T06:10:18.136Z,6.56
2019-04-04T06:12:46.136Z,6.50
2019-04-04T06:15:15.371Z,6.52
2019-04-04T06:17:44.165Z,6.71
2019-04-04T06:20:15.001Z,6.95
2019-04-04T06:22:43.802Z,6.99
2019-04-04T06:25:12.687Z,7.04
2019-04-04T06:27:41.555Z,7.06
2019-04-04T06:30:11.487Z,7.14
2019-04-04T06:32:40.831Z,7.17
2019-04-04T06:35:09.706Z,7.39
2019-04-04T06:37:38.977Z,7.40
2019-04-04T06:40:08.245Z,7.20
2019-04-04T06:42:37.274Z,7.05
2019-04-04T06:45:06.515Z,7.26
2019-04-04T06:47:35.248Z,7.36
2019-04-04T06:50:07.139Z,7.27
2019-04-04T06:52:35.051Z,7.25
2019-04-04T06:55:03.988Z,7.35
2019-04-04T06:57:34.211Z,7.38
2019-04-04T07:00:03.552Z,7.31
2019-04-04T07:02:32.237Z,7.26
2019-04-04T07:05:00.956Z,6.98
2019-04-04T07:07:30.213Z,7.34
2019-04-04T07:09:58.945Z,7.16
2019-04-04T07:12:28.641Z,7.36
2019-04-04T07:14:57.649Z,7.32
2019-04-04T07:17:26.288Z,7.46
2019-04-04T07:19:54.946Z,7.62
2019-04-04T07:22:24.917Z,7.39
2019-04-04T07:24:54.148Z,7.19
2019-04-04T07:27:22.816Z,7.26
2019-04-04T07:29:51.444Z,7.18
2019-04-04T07:32:20.084Z,7.20
2019-04-04T07:34:48.728Z,7.09
2019-04-04T07:37:17.442Z,7.14
2019-04-04T07:39:46.010Z,7.11
2019-04-04T07:42:15.877Z,7.15
2019-04-04T07:48:13.109Z,6.96
2019-04-04T07:50:41.751Z,6.99
2019-04-04T07:53:10.384Z,6.92
2019-04-04T07:55:40.095Z,7.05
2019-04-04T07:58:09.367Z,7.04
2019-04-04T08:00:38.104Z,7.29
2019-04-04T08:03:06.828Z,7.34
2019-04-04T08:05:35.591Z,7.52
2019-04-04T08:08:04.241Z,7.39
2019-04-04T08:10:32.873Z,7.46
2019-04-04T08:13:01.516Z,7.23
2019-04-04T08:15:30.328Z,7.21
2019-04-04T08:17:59.039Z,7.34
2019-04-04T08:20:27.691Z,7.25
2019-04-04T08:22:56.371Z,7.00
2019-04-04T08:25:25.006Z,7.03
2019-04-04T08:27:53.689Z,7.07
2019-04-04T08:30:22.318Z,7.02
2019-04-04T08:32:51.127Z,7.05
2019-04-04T08:35:19.767Z,7.22
2019-04-04T08:37:48.403Z,7.38
2019-04-04T08:40:17.129Z,7.38
2019-04-04T08:42:45.782Z,7.32
2019-04-04T08:45:14.478Z,7.41
2019-04-04T08:47:43.140Z,7.60
2019-04-04T08:50:11.835Z,7.65
2019-04-04T08:52:40.488Z,7.38
2019-04-04T08:55:09.189Z,7.49
2019-04-04T08:57:37.816Z,7.41
2019-04-04T09:00:07.065Z,7.39
2019-04-04T09:02:35.763Z,7.38
2019-04-04T09:05:11.751Z,7.21
2019-04-04T09:07:35.245Z,7.41
2019-04-04T09:10:04.409Z,7.31
2019-04-04T09:12:33.034Z,7.38
2019-04-04T09:15:01.677Z,7.48
2019-04-04T09:17:30.405Z,7.66
2019-04-04T09:19:59.042Z,7.24
2019-04-04T09:22:27.668Z,7.44
2019-04-04T09:24:56.283Z,7.65
2019-04-04T09:27:24.900Z,7.57
2019-04-04T09:29:54.804Z,7.52
2019-04-04T09:32:23.441Z,7.57
2019-04-04T09:34:52.078Z,7.49
2019-04-04T09:37:20.771Z,7.46
2019-04-04T09:39:49.426Z,7.32
2019-04-04T09:42:18.104Z,7.36
2019-04-04T09:44:46.757Z,7.29
2019-04-04T09:47:15.418Z,7.33
2019-04-04T09:49:44.064Z,7.46
2019-04-04T09:52:12.684Z,7.47
2019-04-04T09:54:41.301Z,7.61
2019-04-04T09:57:09.962Z,7.67
2019-04-04T09:59:38.604Z,7.74
2019-04-04T10:02:07.389Z,7.62
2019-04-04T10:04:36.191Z,7.36
2019-04-04T10:07:04.971Z,7.65
2019-04-04T10:09:33.713Z,7.71
2019-04-04T10:12:02.402Z,7.72
2019-04-04T10:14:31.080Z,7.61
2019-04-04T10:16:59.728Z,7.63
2019-04-04T10:19:28.330Z,7.80
2019-04-04T10:21:56.975Z,7.95
2019-04-04T10:24:25.630Z,7.49
2019-04-04T10:26:54.373Z,7.48
2019-04-04T10:29:22.979Z,7.47
2019-04-04T10:31:51.622Z,7.62
2019-04-04T10:34:20.239Z,7.64
2019-04-04T10:36:48.868Z,7.70
2019-04-04T10:39:28.254Z,7.68
2019-04-04T10:41:47.915Z,7.90
2019-04-04T10:44:16.583Z,7.59
2019-04-04T10:46:45.254Z,7.72
2019-04-04T10:49:13.982Z,7.86
2019-04-04T10:51:42.743Z,7.76
2019-04-04T10:54:11.462Z,7.64
2019-04-04T10:56:40.167Z,7.50
2019-04-04T10:59:08.906Z,7.37
2019-04-04T11:01:37.655Z,7.44
2019-04-04T11:04:06.335Z,7.38
2019-04-04T11:06:34.949Z,7.36
2019-04-04T11:09:05.058Z,7.41
2019-04-04T11:11:33.718Z,7.46
2019-04-04T11:14:02.338Z,7.38
2019-04-04T11:16:30.978Z,7.24
2019-04-04T11:18:59.622Z,7.23
2019-04-04T11:21:28.293Z,7.32
2019-04-04T11:23:57.210Z,7.52
2019-04-04T11:26:25.944Z,7.59
2019-04-04T11:28:54.696Z,7.52
2019-04-04T11:31:23.326Z,7.50
2019-04-04T11:33:51.959Z,7.47
2019-04-04T11:36:20.582Z,7.57
2019-04-04T11:38:49.213Z,7.49
2019-04-04T11:41:17.903Z,7.54
2019-04-04T11:43:47.951Z,7.56
2019-04-04T11:46:16.756Z,7.59
2019-04-04T11:48:45.631Z,7.59
2019-04-04T11:51:14.278Z,7.49
2019-04-04T11:53:42.895Z,7.45
2019-04-04T11:56:11.603Z,7.39
2019-04-04T11:58:40.286Z,7.59
2019-04-04T12:01:11.183Z,7.58
2019-04-04T12:03:39.851Z,7.52
2019-04-04T12:06:08.474Z,7.56
2019-04-04T12:08:37.148Z,7.67
2019-04-04T12:11:05.851Z,7.76
2019-04-04T12:13:34.316Z,7.88
2019-04-04T12:16:02.911Z,7.95
2019-04-04T12:18:31.638Z,7.91
2019-04-04T12:21:00.289Z,7.88
2019-04-04T12:23:28.946Z,8.08
2019-04-04T12:25:57.547Z,8.10
2019-04-04T12:28:26.163Z,8.12
2019-04-04T12:30:54.798Z,7.95
2019-04-04T12:33:23.416Z,7.83
2019-04-04T12:35:52.614Z,7.79
2019-04-04T12:38:21.257Z,7.72
2019-04-04T12:40:49.869Z,7.61
2019-04-04T12:43:18.523Z,7.66
2019-04-04T12:45:47.399Z,7.71
2019-04-04T12:48:16.053Z,8.04
2019-04-04T12:50:44.816Z,8.01
2019-04-04T12:53:13.449Z,7.95
2019-04-04T12:55:42.118Z,8.11
2019-04-04T12:58:11.050Z,7.96
2019-04-04T13:00:39.752Z,8.09
2019-04-04T13:03:08.378Z,8.18
2019-04-04T13:05:37.003Z,7.99
2019-04-04T13:08:05.693Z,7.95
2019-04-04T13:10:34.403Z,8.04
2019-04-04T13:13:03.010Z,7.89
2019-04-04T13:15:31.645Z,7.85
2019-04-04T13:18:00.297Z,7.78
2019-04-04T13:20:28.934Z,7.82
2019-04-04T13:22:57.558Z,7.62
2019-04-04T13:25:26.272Z,7.33
2019-04-04T13:27:54.885Z,7.35
2019-04-04T13:30:23.670Z,7.67
2019-04-04T13:32:52.289Z,7.71
2019-04-04T13:35:20.995Z,7.63
2019-04-04T13:37:49.618Z,7.64
2019-04-04T13:40:18.336Z,7.73
2019-04-04T13:42:47.034Z,7.46
2019-04-04T13:45:15.670Z,7.56
2019-04-04T13:47:44.381Z,7.69
2019-04-04T13:50:13.101Z,7.57
2019-04-04T13:52:41.729Z,7.76
2019-04-04T13:55:10.506Z,7.70
2019-04-04T13:57:39.598Z,7.66
2019-04-04T14:00:09.362Z,7.77
2019-04-04T14:02:37.963Z,7.77
2019-04-04T14:05:10.613Z,7.70
2019-04-04T14:07:37.390Z,7.41
2019-04-04T14:10:07.102Z,7.62
2019-04-04T14:12:35.820Z,7.68
2019-04-04T14:15:05.147Z,7.65
2019-04-04T14:17:33.777Z,7.66
2019-04-04T14:20:02.403Z,7.67
2019-04-04T14:22:31.065Z,7.59
2019-04-04T14:24:59.669Z,7.59
2019-04-04T14:27:28.369Z,7.56
2019-04-04T14:29:57.067Z,7.65
2019-04-04T14:32:25.767Z,7.49
2019-04-04T14:34:54.408Z,7.54
2019-04-04T14:37:23.019Z,7.58
2019-04-04T14:39:51.653Z,7.59
2019-04-04T14:42:20.294Z,7.54
2019-04-04T14:44:48.926Z,7.64
2019-04-04T14:47:17.561Z,7.71
2019-04-04T14:49:46.190Z,7.63
2019-04-04T14:52:14.818Z,7.46
2019-04-04T14:54:43.422Z,7.70
2019-04-04T14:57:12.046Z,7.87
2019-04-04T14:59:40.671Z,7.72
2019-04-04T15:02:09.309Z,7.77
2019-04-04T15:04:37.974Z,7.75
2019-04-04T15:07:06.674Z,7.95
2019-04-04T15:09:35.301Z,8.00
2019-04-04T15:12:03.919Z,7.95
2019-04-04T15:14:32.579Z,7.90
2019-04-04T15:17:01.167Z,7.92
2019-04-04T15:19:29.789Z,8.01
2019-04-04T15:21:58.417Z,7.89
2019-04-04T15:24:27.046Z,7.80
2019-04-04T15:26:55.773Z,7.79
2019-04-04T15:32:03.502Z,7.70
2019-04-04T15:34:32.123Z,7.73
2019-04-04T15:37:00.790Z,7.70
2019-04-04T15:39:29.410Z,7.77
2019-04-04T15:41:58.035Z,7.71
2019-04-04T15:44:28.693Z,7.61
2019-04-04T15:46:57.291Z,7.63
2019-04-04T15:49:25.979Z,7.62
2019-04-04T15:51:54.602Z,7.54
2019-04-04T15:54:23.221Z,7.61
2019-04-04T15:56:51.831Z,7.53
2019-04-04T15:59:20.453Z,7.63
2019-04-04T16:01:49.145Z,7.47
2019-04-04T16:04:17.786Z,7.48
2019-04-04T16:06:46.477Z,7.59
2019-04-04T16:09:15.151Z,7.54
2019-04-04T16:11:49.336Z,7.46
2019-04-04T16:14:14.207Z,7.39
2019-04-04T16:16:42.840Z,7.50
2019-04-04T16:19:11.477Z,7.52
2019-04-04T16:21:40.110Z,7.45
2019-04-04T16:24:08.736Z,7.34
2019-04-04T16:26:37.370Z,7.52
2019-04-04T16:29:05.984Z,7.49
2019-04-04T16:31:34.688Z,7.50
2019-04-04T16:34:03.395Z,7.41
2019-04-04T16:36:32.061Z,7.37
2019-04-04T16:39:00.762Z,7.24
2019-04-04T16:41:29.444Z,7.28
2019-04-04T16:43:58.082Z,7.42
2019-04-04T16:46:26.704Z,7.60
2019-04-04T16:48:55.319Z,7.86
2019-04-04T16:51:23.969Z,7.86
2019-04-04T16:53:52.568Z,7.97
2019-04-04T16:56:21.204Z,8.04
2019-04-04T16:58:49.865Z,8.03
2019-04-04T17:01:18.525Z,7.86
2019-04-04T17:03:47.164Z,7.96
2019-04-04T17:06:15.906Z,7.90
2019-04-04T17:08:44.511Z,7.90
2019-04-04T17:11:13.129Z,7.95
2019-04-04T17:13:41.765Z,7.75
2019-04-04T17:16:10.654Z,7.65
2019-04-04T17:18:54.075Z,7.68
2019-04-04T17:21:25.163Z,7.89
2019-04-04T17:23:59.462Z,7.89
2019-04-04T17:26:32.241Z,7.85
2019-04-04T17:29:13.246Z,7.81
2019-04-04T17:31:42.324Z,7.72
2019-04-04T17:34:14.738Z,7.81
2019-04-04T17:36:44.671Z,7.76
2019-04-04T17:39:19.157Z,7.87
2019-04-04T17:41:50.878Z,7.66
2019-04-04T17:44:21.716Z,7.46
2019-04-04T17:46:52.808Z,7.45
2019-04-04T17:49:23.246Z,7.62
2019-04-04T17:51:52.641Z,7.69
2019-04-04T17:54:24.542Z,7.46
2019-04-04T17:56:58.475Z,7.61
2019-04-04T17:59:30.369Z,7.72
2019-04-04T18:01:59.499Z,7.62
2019-04-04T18:04:34.787Z,7.57
2019-04-04T18:07:04.778Z,7.70
2019-04-04T18:09:36.527Z,7.67
2019-04-04T18:12:10.195Z,7.69
2019-04-04T18:14:43.901Z,7.61
2019-04-04T18:17:13.164Z,7.58
2019-04-04T18:19:51.407Z,7.62
2019-04-04T18:22:24.780Z,7.67
2019-04-04T18:25:03.408Z,7.59
2019-04-04T18:27:34.003Z,7.38
2019-04-04T18:30:05.552Z,7.47
2019-04-04T18:32:38.337Z,7.42
2019-04-04T18:35:09.866Z,7.41
2019-04-04T18:37:46.081Z,7.58
2019-04-04T18:40:19.643Z,7.61
2019-04-04T18:42:59.664Z,7.54
2019-04-04T18:45:40.615Z,7.54
2019-04-04T18:48:16.052Z,7.35
2019-04-04T18:50:45.207Z,7.41
2019-04-04T18:53:20.247Z,7.31
2019-04-04T18:55:59.292Z,7.36
2019-04-04T18:58:32.232Z,7.40
2019-04-04T19:01:12.715Z,7.40
2019-04-04T19:03:49.702Z,7.36
2019-04-04T19:06:19.857Z,7.27
2019-04-04T19:09:01.207Z,7.27
2019-04-04T19:11:34.407Z,7.35
2019-04-04T19:14:04.058Z,7.42
2019-04-04T19:16:38.124Z,7.40
2019-04-04T19:19:11.797Z,7.32
2019-04-04T19:22:01.474Z,7.36
2019-04-04T19:24:32.908Z,7.51
2019-04-04T19:27:04.348Z,7.68
2019-04-04T19:29:53.750Z,7.52
2019-04-04T19:32:47.926Z,7.39
2019-04-04T19:35:21.348Z,7.26
2019-04-04T19:37:59.958Z,7.35
2019-04-04T19:40:27.308Z,7.39
2019-04-04T19:42:58.018Z,7.41
2019-04-04T19:45:26.848Z,7.49
2019-04-04T19:48:04.334Z,7.50
2019-04-04T19:50:39.176Z,7.25
2019-04-04T19:53:09.822Z,7.13
2019-04-04T19:55:42.427Z,7.25
2019-04-04T19:58:12.650Z,7.33
2019-04-04T20:00:44.488Z,7.26
2019-04-04T20:03:13.927Z,7.18
2019-04-04T20:05:44.618Z,7.20
2019-04-04T20:08:13.812Z,7.21
2019-04-04T20:10:45.539Z,7.15
2019-04-04T20:16:39.312Z,7.20
2019-04-04T20:19:09.139Z,7.26
2019-04-04T20:21:59.446Z,7.28
2019-04-04T20:24:36.033Z,7.10
2019-04-04T20:27:29.489Z,7.20
2019-04-04T20:30:00.141Z,7.15
2019-04-04T20:32:34.964Z,7.07
2019-04-04T20:35:07.807Z,7.04
2019-04-04T20:37:44.721Z,7.08
2019-04-04T20:40:13.970Z,7.10
2019-04-04T20:43:17.545Z,7.06
2019-04-04T20:45:55.886Z,7.31
2019-04-04T20:48:26.832Z,7.12
2019-04-04T20:50:58.555Z,7.06
2019-04-04T20:53:29.375Z,7.00
2019-04-04T20:56:00.414Z,7.04
2019-04-04T20:58:51.330Z,7.06
2019-04-04T21:01:51.741Z,7.10
2019-04-04T21:04:20.872Z,7.03
2019-04-04T21:07:06.027Z,6.99
2019-04-04T21:09:50.441Z,7.07
2019-04-04T21:12:30.220Z,6.87
2019-04-04T21:15:05.056Z,6.96
2019-04-04T21:17:40.215Z,6.97
2019-04-04T21:20:11.126Z,6.95
2019-04-04T21:22:44.553Z,6.97
2019-04-04T21:25:18.373Z,6.88
2019-04-04T21:30:43.587Z,6.96
2019-04-04T21:33:14.717Z,6.84
2019-04-04T21:35:44.238Z,6.83
2019-04-04T21:38:15.608Z,6.78
2019-04-04T21:40:47.070Z,6.84
2019-04-04T21:43:20.058Z,6.99
2019-04-04T21:45:52.839Z,7.04
2019-04-04T21:48:27.044Z,7.05
2019-04-04T21:51:00.922Z,6.96
2019-04-04T21:53:33.723Z,6.85
2019-04-04T21:56:05.872Z,6.93
2019-04-04T21:58:38.950Z,6.89
2019-04-04T22:01:13.688Z,6.92
2019-04-04T22:03:46.731Z,6.93
2019-04-04T22:06:16.667Z,6.81
2019-04-04T22:08:50.841Z,6.94
2019-04-04T22:11:24.096Z,6.72
2019-04-04T22:13:55.726Z,6.80
2019-04-04T22:16:25.687Z,6.86
2019-04-04T22:18:57.570Z,6.82
2019-04-04T22:21:30.452Z,6.78
2019-04-04T22:24:00.913Z,6.91
2019-04-04T22:26:31.128Z,6.97
2019-04-04T22:28:59.967Z,6.89
2019-04-04T22:31:30.341Z,7.02
2019-04-04T22:34:01.775Z,7.20
2019-04-04T22:36:43.901Z,7.23
2019-04-04T22:39:21.219Z,7.08
2019-04-04T22:41:56.597Z,6.87
2019-04-04T22:45:32.646Z,6.77
2019-04-04T22:48:10.094Z,6.73
2019-04-04T22:50:42.226Z,6.71
2019-04-04T22:53:19.616Z,6.70
2019-04-04T22:55:51.811Z,6.79
2019-04-04T22:58:33.107Z,6.87
2019-04-04T23:01:05.916Z,6.96
2019-04-04T23:03:37.210Z,6.87
2019-04-04T23:06:14.884Z,6.89
2019-04-04T23:08:45.527Z,6.66
2019-04-04T23:11:14.958Z,6.68
2019-04-04T23:13:43.606Z,6.73
2019-04-04T23:16:12.234Z,6.67
2019-04-04T23:18:40.886Z,6.88
2019-04-04T23:21:09.522Z,6.78
2019-04-04T23:23:38.161Z,6.74
2019-04-04T23:26:06.891Z,6.64
2019-04-04T23:28:35.543Z,6.49
2019-04-04T23:31:04.200Z,6.40
2019-04-04T23:33:32.857Z,6.31
2019-04-04T23:36:01.559Z,6.25
2019-04-04T23:38:30.253Z,6.29
2019-04-04T23:40:59.028Z,6.29
2019-04-04T23:43:27.653Z,6.40
2019-04-04T23:45:56.276Z,6.43
2019-04-04T23:48:24.923Z,6.56
2019-04-04T23:50:53.585Z,6.59
2019-04-04T23:53:22.230Z,6.68
2019-04-04T23:55:50.904Z,6.80
2019-04-04T23:58:19.589Z,6.91
